Nearby METAR Reports

 

KSJC - San Jose, California, USA
Distance from station: NE 9mi, 14km
Updated: Sat, 26-Sep-2020 8:53am PDT
Few Clouds
Few Clouds
 Wind from calm
Wind: Calm
Temperature: 66°F , 19°C
Dew Point: 52°F , 11°C
Humidity: 60%
Barometer: 30.06 inHg , 1017.9 hPa
Clouds: Few Clouds
Visibility: 10 miles , 16 km
Cloud details: Few Clouds 3400 ft
Few Clouds 7500 ft
2020/09/26 15:53 KSJC 261553Z 00000KT 10SM FEW034 FEW075 19/11 A3006 RMK AO2 SLP179 T01890111
KNUQ - Moffett Nas/Mtn, California, USA
Distance from station: N 9mi, 14km
Updated: Sat, 26-Sep-2020 6:55am PDT
NOT Current
Clear
Clear
 Wind from calm
Wind: Calm
Temperature: 59°F , 15°C
Dew Point: 54°F , 12°C
Humidity: 82%
Barometer: 30.04 inHg , 1017.3 hPa
Clouds: Clear
Visibility: 10 miles , 16 km
2020/09/26 13:55 KNUQ 261355Z AUTO 00000KT 10SM CLR 15/12 A3004 RMK AO2
 
KPAO - Palo Alto, California, USA
Distance from station: NNW 14mi, 23km
Updated: Fri, 25-Sep-2020 6:47pm PDT
NOT Current
Clear
Clear
 Wind from NW
Wind: NW 12 mph , 19 km/h
Temperature: 72°F , 22°C
Dew Point: 52°F , 11°C
Humidity: 50%
Barometer: 30.00 inHg , 1015.9 hPa
Clouds: Clear
Visibility: 10 miles , 16 km
2020/09/26 01:47 KPAO 260147Z 31010KT 10SM SKC 22/11 A3000 RMK LAST
KRHV - San Jose/Reid, California, USA
Distance from station: ENE 12mi, 19km
Updated: Sat, 26-Sep-2020 8:50am PDT
Clear
Clear
 Wind from calm
Wind: Calm
Temperature: 64°F , 18°C
Dew Point: 54°F , 12°C
Humidity: 68%
Barometer: 30.07 inHg , 1018.3 hPa
Clouds: Clear
Visibility: 10 miles , 16 km
2020/09/26 15:50 KRHV 261550Z 00000KT 10SM SKC 18/12 A3007
 
KOAK - Oakland, California, USA
Distance from station: NNW 31mi, 50km
Updated: Sat, 26-Sep-2020 8:53am PDT
Few Clouds
Few Clouds
 Wind from SE
Wind: SE 5 mph , 7 km/h
Temperature: 70°F , 21°C
Dew Point: 59°F , 15°C
Humidity: 69%
Barometer: 30.06 inHg , 1017.9 hPa
Clouds: Few Clouds
Visibility: 10 miles , 16 km
Cloud details: Few Clouds 800 ft
Few Clouds 1500 ft
2020/09/26 15:53 KOAK 261553Z 13004KT 10SM FEW008 FEW015 21/15 A3006 RMK AO2 SLP177 T02060150
KSQL - San Carlos Airpo, California, USA
Distance from station: NW 21mi, 34km
Updated: Sat, 26-Sep-2020 8:47am PDT
Clear
Clear
 Wind from varies
Wind: varies 3 mph , 6 km/h
Temperature: 64°F , 18°C
Dew Point: 57°F , 14°C
Humidity: 78%
Barometer: 30.07 inHg , 1018.3 hPa
Clouds: Clear
Visibility: 10 miles , 16 km
2020/09/26 15:47 KSQL 261547Z VRB03KT 10SM SKC 18/14 A3007
 
KSFO - San Francisco, California, USA
Distance from station: NW 30mi, 49km
Updated: Sat, 26-Sep-2020 7:56am PDT
Few Clouds
Few Clouds
 Wind from WNW
Wind: WNW 14 mph , 22 km/h
Temperature: 61°F , 16°C
Dew Point: 57°F , 14°C
Humidity: 88%
Barometer: 30.06 inHg , 1017.9 hPa
Clouds: Few Clouds
Visibility: 10 miles , 16 km
Cloud details: Few Clouds 1100 ft
2020/09/26 14:56 KSFO 261456Z 30012KT 10SM FEW011 16/14 A3006 RMK AO2 SLP177 T01610144 53008
KE16 - San Martin, California, USA
Distance from station: ESE 27mi, 43km
Updated: Sat, 26-Sep-2020 8:30am PDT
Clear
Clear
 Wind from calm
Wind: Calm
Temperature: 59°F , 15°C
Dew Point: 50°F , 10°C
Humidity: 72%
Barometer: 30.08 inHg , 1018.6 hPa
Clouds: Clear
Visibility: 10 miles , 16 km
2020/09/26 15:30 KE16 261530Z AUTO 00000KT 10SM CLR 15/10 A3008 RMK AO2 PWINO PNO
 
KWVI - Watsonville, California, USA
Distance from station: SSE 27mi, 44km
Updated: Sat, 26-Sep-2020 8:53am PDT
Clear
Clear
 Wind from calm
Wind: Calm
Temperature: 64°F , 18°C
Dew Point: 55°F , 13°C
Humidity: 73%
Barometer: 30.05 inHg , 1017.6 hPa
Clouds: Clear
Visibility: 10 miles , 16 km
2020/09/26 15:53 KWVI 261553Z AUTO 00000KT 10SM CLR 18/13 A3005 RMK AO2 SLP176 T01780128
KHAF - Half Moon Bay, California, USA
Distance from station: WNW 31mi, 50km
Updated: Sat, 26-Sep-2020 8:35am PDT
Mist, Overcast
Mist, Overcast
 Wind from NNW
Wind: NNW 17 mph , 28 km/h, Gust: 23 mph , 37 km/h
Temperature: 59°F , 15°C
Dew Point: 59°F , 15°C
Humidity: 100%
Barometer: 30.07 inHg , 1018.3 hPa
Summary: Mist
Clouds: Overcast
Visibility: 2 miles , 3 km
Cloud details: Overcast 300 ft
2020/09/26 15:35 KHAF 261535Z AUTO 34015G20KT 2SM BR OVC003 15/15 A3007 RMK AO2
 
KHWD - Hayward, California, USA
Distance from station: N 28mi, 44km
Updated: Sat, 26-Sep-2020 7:54am PDT
Clear
Clear
 Wind from calm
Wind: Calm
Temperature: 63°F , 17°C
Dew Point: 54°F , 12°C
Humidity: 73%
Barometer: 30.05 inHg , 1017.6 hPa
Clouds: Clear
Visibility: 10 miles , 16 km
2020/09/26 14:54 KHWD 261454Z AUTO 00000KT 10SM CLR 17/12 A3005 RMK AO2 SLP185 T01720122 53007
KLVK - Livermore, California, USA
Distance from station: NNE 31mi, 51km
Updated: Sat, 26-Sep-2020 8:53am PDT
Clear
Clear
 Wind from calm
Wind: Calm
Temperature: 63°F , 17°C
Dew Point: 54°F , 12°C
Humidity: 73%
Barometer: 30.06 inHg , 1017.9 hPa
Clouds: Clear
Visibility: 10 miles , 16 km
2020/09/26 15:53 KLVK 261553Z 00000KT 10SM CLR 17/12 A3006 RMK AO2 SLP176 T01720117